• Join FlightAware (Why Join?)
  • Login
  • US Flag 
07:01PM EDT


 

Airport Tracker/Info


-or-


 

Live Flight TrackerFlight Track Log ✈ QFA1051 ✈ 30-Jun-2013 ✈ YBRM / BME - YMML / MEL

Flight Track Log - Related Links

Times and Time Zones

All times are in EDT time to prevent confusion due to time zone crossing. See the QFA1051 flight status page for this flight to view local times or setup timezone preferences in your user account.

Time Position Orientation Groundspeed Altitude Reporting Facility
EDT Latitude Longitude Course Direction KTS MPH feet Rate Location/Type
12:20AM -17.9496 122.2277 133° Southeast 34,000  Level Aus ATC (Calculated)
12:21AM -18.0108 122.2962 133° Southeast 34,000  Level Aus ATC (Calculated)
12:23AM -18.1391 122.4402 133° Southeast  Level FlightAware Approximate
12:23AM -18.1254 122.4248 133° Southeast 34,000  Level Aus ATC (Calculated)
12:23AM -18.1755 122.4811 133° Southeast 34,000  Level Aus ATC (Calculated)
12:24AM -18.2225 122.5339 133° Southeast 34,000  Level Aus ATC (Calculated)
12:26AM -18.3501 122.6776 133° Southeast  Level FlightAware Approximate
12:26AM -18.3546 122.6826 133° Southeast 34,000  Level Aus ATC (Calculated)
12:27AM -18.4370 122.7757 133° Southeast  Level FlightAware Approximate
12:28AM -18.4907 122.8363 133° Southeast  Level FlightAware Approximate
12:28AM -18.4975 122.8439 133° Southeast 34,000  Level Aus ATC (Calculated)
12:29AM -18.5511 122.9045 133° Southeast 34,000  Level Aus ATC (Calculated)
12:31AM -18.6876 123.0592 133° Southeast  Level FlightAware Approximate
12:31AM -18.6916 123.0637 133° Southeast 34,000  Level Aus ATC (Calculated)
12:32AM -18.8085 123.1966 133° Southeast 34,000  Level Aus ATC (Calculated)
12:33AM -18.9254 123.3296 133° Southeast 34,000  Level Aus ATC (Calculated)
12:34AM -18.9449 123.3518 133° Southeast  Level FlightAware Approximate
12:35AM -18.9253 123.1831 270° West  Level FlightAware Approximate
12:35AM -19.0508 123.4734 133° Southeast 35,000  Level Aus ATC (Calculated)
12:35AM -19.1134 123.5454 133° Southeast 35,000  Level Aus ATC (Calculated)
12:37AM -18.9979 123.4127 313° West  Level FlightAware Approximate
12:38AM -18.9994 123.4145 133° Southeast  Level FlightAware Approximate
12:38AM -19.3638 123.8340 133° Southeast 35,000  Level Aus ATC (Calculated)
12:39AM -19.0861 123.5140 133° Southeast  Level FlightAware Approximate
12:40AM -19.4862 123.9757 133° Southeast  Level FlightAware Approximate
12:41AM -19.5726 124.0758 132° Southeast  Level FlightAware Approximate
12:41AM -19.6760 124.1959 133° Southeast 35,000  Level Aus ATC (Calculated)
12:42AM -19.6589 124.1760 132° Southeast  Level FlightAware Approximate
12:42AM -19.8007 124.3411 132° Southeast 35,000  Level Aus ATC (Calculated)
12:43AM -19.7982 124.3381 132° Southeast  Level FlightAware Approximate
12:44AM -19.8969 124.4533 132° Southeast  Level FlightAware Approximate
12:45AM -19.9830 124.5540 132° Southeast  Level FlightAware Approximate
12:46AM -20.0691 124.6547 132° Southeast  Level FlightAware Approximate
12:46AM -20.1740 124.7779 132° Southeast 35,000  Level Aus ATC (Calculated)
12:47AM -20.1551 124.7556 132° Southeast  Level FlightAware Approximate
12:48AM -20.2972 124.9227 132° Southeast  Level FlightAware Approximate
12:48AM -20.3603 124.9971 132° Southeast 35,000  Level Aus ATC (Calculated)
12:50AM -20.5175 125.1828 132° Southeast  Level FlightAware Approximate
12:51AM -20.6032 125.2842 132° Southeast  Level FlightAware Approximate
12:51AM -20.6701 125.3636 132° Southeast 35,000  Level Aus ATC (Calculated)
12:53AM -20.7928 125.5093 132° Southeast  Level FlightAware Approximate
12:54AM -20.8783 125.6111 132° Southeast  Level FlightAware Approximate
12:54AM -20.9537 125.7010 132° Southeast 35,000  Level Aus ATC (Calculated)
12:55AM -21.0627 125.8306 132° Southeast 35,000  Level Aus ATC (Calculated)
12:56AM -20.8153 125.5365 312° West  Level FlightAware Approximate
12:57AM -20.9457 125.6914 312° West  Level FlightAware Approximate
12:58AM -20.8600 125.5897 312° West  Level FlightAware Approximate
12:59AM -20.9457 125.6914 132° Southeast  Level FlightAware Approximate
12:59AM -21.4252 126.2639 132° Southeast 35,000  Level Aus ATC (Calculated)
01:01AM -21.5823 126.4085 132° Southeast  Level Estimated
01:02AM -21.6665 126.5121 131° Southeast  Level FlightAware Approximate
01:02AM -21.6783 126.5686 132° Southeast 35,000  Level Aus ATC (Calculated)
01:03AM -21.7866 126.6994 132° Southeast 35,000  Level Aus ATC (Calculated)
01:04AM -21.9309 126.8742 132° Southeast 35,000  Level Aus ATC (Calculated)
01:06AM -22.0695 127.0428 132° Southeast  Level FlightAware Approximate
01:07AM -22.1543 127.1462 132° Southeast  Level FlightAware Approximate
01:08AM -22.2390 127.2497 132° Southeast  Level FlightAware Approximate
01:09AM -22.3237 127.3533 131° Southeast  Level FlightAware Approximate
01:09AM -22.3983 127.4448 131° Southeast 35,000  Level Aus ATC (Calculated)
01:11AM -22.5376 127.6160 131° Southeast  Level FlightAware Approximate
01:12AM -22.6228 127.7211 131° Southeast  Level FlightAware Approximate
01:13AM -22.7079 127.8262 131° Southeast  Level FlightAware Approximate
01:14AM -22.7930 127.9315 131° Southeast  Level FlightAware Approximate
01:14AM -22.8994 128.0635 131° Southeast 35,000  Level Aus ATC (Calculated)
01:15AM -22.8772 128.0360 131° Southeast  Level FlightAware Approximate
01:15AM -23.0064 128.1967 131° Southeast 35,000  Level Aus ATC (Calculated)
01:16AM -23.0031 128.1926 131° Southeast  Level FlightAware Approximate
01:17AM -23.1185 128.3364 131° Southeast  Level FlightAware Approximate
01:17AM -23.2202 128.4636 131° Southeast 35,000  Level Aus ATC (Calculated)
01:18AM -23.2024 128.4414 131° Southeast  Level FlightAware Approximate
01:18AM -23.2818 128.5409 131° Southeast 37,000  Level Aus ATC (Calculated)
01:18AM -23.3434 128.6184 131° Southeast 37,000 -180 Level Aus ATC (Calculated)
01:19AM -23.3594 128.4636 180° South  Level FlightAware Approximate
01:20AM -23.1676 128.3977 311° West  Level FlightAware Approximate
01:21AM -23.1729 128.4043 311° West  Level FlightAware Approximate
01:22AM -23.2574 128.5103 131° Southeast  Level FlightAware Approximate
01:22AM -23.6506 129.0065 131° Southeast 37,000  Level Aus ATC (Calculated)
01:24AM -23.5509 128.8802 311° West  Level FlightAware Approximate
01:25AM -23.4666 128.7736 311° West  Level FlightAware Approximate
01:26AM -23.3822 128.6672 311° West  Level FlightAware Approximate
01:27AM -23.2977 128.5609 311° West  Level FlightAware Approximate
01:27AM -24.1401 129.6313 131° Southeast 37,000  Level Aus ATC (Calculated)
01:28AM -23.2132 128.4547 311° West  Level FlightAware Approximate
01:29AM -24.2566 129.7395 131° Southeast  Level Estimated
01:30AM -24.3386 129.8489 129° Southeast  Level FlightAware Approximate
01:31AM -24.4205 129.9585 129° Southeast  Level FlightAware Approximate
01:32AM -24.5023 130.0681 129° Southeast  Level FlightAware Approximate
01:32AM -24.6280 130.2610 129° Southeast 535 616 35,000  Level FlightAware
01:32AM -24.6270 130.2608 131° Southeast 37,000  Climbing Aus ATC (Calculated)
01:32AM -24.6970 130.3510 130° Southeast 532 612 35,000 -2,460 Descending FlightAware
01:33AM -24.5840 130.1779 129° Southeast  Level FlightAware Approximate
01:33AM -24.7580 130.4310 130° Southeast 530 610 35,000  Level FlightAware
01:34AM -24.8290 130.5230 130° Southeast 529 609 35,000  Level FlightAware
01:35AM -24.8910 130.6040 130° Southeast 529 609 35,000  Level FlightAware
01:35AM -24.9740 130.7130 130° Southeast 529 609 35,000  Level FlightAware
01:36AM -24.9299 130.6567 126° Southeast 37,000  Climbing Aus ATC (Calculated)
01:36AM -25.0480 130.8390 130° Southeast 547 629 35,000 -2,580 Descending FlightAware
01:37AM -25.0730 130.8750 127° Southeast 527 606 35,000  Level FlightAware
01:37AM -25.1400 130.9130 153° Southeast 484 557 35,000  Level FlightAware
01:38AM -25.2320 130.9170 178° South 451 519 35,000  Level FlightAware
01:38AM -25.1112 130.8952 168° South 37,000  Climbing Aus ATC (Calculated)
01:39AM -25.3160 130.9440 178° South 516 594 35,000 -2,280 Descending FlightAware
01:39AM -25.3400 130.9750 131° Southeast 537 618 35,000  Level FlightAware
01:39AM -25.2096 131.0433 168° South 37,000  Climbing Aus ATC (Calculated)
01:40AM -25.4040 131.0890 131° Southeast 535 616 35,000 -1,140 Descending FlightAware
01:40AM -25.2476 131.1119 161° South 37,000  Climbing Aus ATC (Calculated)
01:41AM -25.4910 131.2070 131° Southeast 529 609 35,000 -1,320 Descending FlightAware
01:41AM -25.5610 131.2960 131° Southeast 525 604 35,000  Level FlightAware
01:42AM -25.3996 131.3867 179° South 37,000  Climbing Aus ATC (Calculated)
01:42AM -25.6320 131.3890 131° Southeast 522 601 35,000 -1,980 Descending FlightAware
01:43AM -25.7070 131.4870 130° Southeast 520 598 35,000  Level FlightAware
01:43AM -25.5132 131.5932 185° South 37,000  Climbing Aus ATC (Calculated)
01:43AM -25.7680 131.5680 130° Southeast 518 596 35,000 -1,500 Descending FlightAware
01:44AM -25.8390 131.6600 130° Southeast 523 602 35,500 780 Climbing FlightAware
01:46AM -25.9930 131.8640 130° Southeast 515 593 37,000 480 Climbing FlightAware
01:47AM -26.1040 132.0100 130° Southeast 507 583 37,000  Level FlightAware
01:48AM -26.1640 132.0910 130° Southeast 504 580 37,000  Level FlightAware
01:48AM -25.8897 132.2843 196° South 37,000  Level Aus ATC (Calculated)
01:49AM -26.2300 132.1790 130° Southeast 498 573 37,000 -420 Level FlightAware
01:49AM -26.2880 132.2560 130° Southeast 492 566 36,700 -1,200 Descending FlightAware
01:50AM -26.3810 132.3800 130° Southeast 512 589 35,000 -1,080 Descending FlightAware
01:51AM -26.4350 132.4530 130° Southeast 511 588 35,000  Level FlightAware
01:52AM -26.4980 132.5380 130° Southeast 509 586 35,000  Level FlightAware
01:52AM -26.1140 132.7011 188° South 37,000  Climbing Aus ATC (Calculated)
01:52AM -26.5660 132.6300 130° Southeast 509 586 35,000 -1,620 Descending FlightAware
01:53AM -26.6370 132.7250 130° Southeast 509 586 35,000  Level FlightAware
01:53AM -26.2257 132.9100 186° South 37,000  Climbing Aus ATC (Calculated)
01:53AM -26.2257 132.9100 186° South 37,000 -2,280 Level Aus ATC (Calculated)
01:54AM -26.7310 132.8540 130° Southeast 509 586 35,000 -1,200 Descending FlightAware
01:55AM -26.8000 132.9450 130° Southeast 505 581 35,000  Level FlightAware
01:57AM -27.0160 133.2390 140° Southeast 499 574 35,000  Level FlightAware
01:58AM -27.0344 133.1639 140° Southeast  Level Estimated
01:58AM -27.0870 133.3360 129° Southeast 496 571 35,000  Level FlightAware
01:58AM -26.5590 133.5394 190° South 37,000  Climbing Aus ATC (Calculated)
01:59AM -27.1480 133.4190 129° Southeast 493 567 35,000 -1,860 Descending FlightAware
01:59AM -27.1940 133.4840 129° Southeast 493 567 35,000  Level FlightAware
02:00AM -27.2640 133.5790 130° Southeast 491 565 35,000  Level FlightAware
02:01AM -27.3130 133.6460 129° Southeast 491 565 35,000  Level FlightAware
02:02AM -27.3860 133.7480 129° Southeast 491 565 35,000  Level FlightAware
02:02AM -27.4310 133.8100 129° Southeast 491 565 35,000  Level FlightAware
02:03AM -27.4900 133.8930 129° Southeast 491 565 35,000  Level FlightAware
02:03AM -26.9261 134.2429 203° Southwest 37,000  Climbing Aus ATC (Calculated)
02:04AM -27.5350 133.9560 129° Southeast 491 565 35,000 -960 Descending FlightAware
02:06AM -27.6540 134.1220 129° Southeast 491 565 35,000  Level FlightAware
02:07AM -27.7280 134.2250 129° Southeast 491 565 35,000  Level FlightAware
02:07AM -27.7720 134.2860 129° Southeast 491 565 35,000  Level FlightAware
02:08AM -27.8320 134.3690 129° Southeast 491 565 35,000  Level FlightAware
02:08AM -27.2534 134.8799 213° Southwest 37,000  Climbing Aus ATC (Calculated)
02:09AM -27.8750 134.4300 129° Southeast 491 565 35,000 -1,920 Descending FlightAware
02:09AM -27.9350 134.5140 129° Southeast 491 565 35,000  Level FlightAware
02:10AM -27.9760 134.5710 129° Southeast 491 565 35,000  Level FlightAware
02:11AM -28.0820 134.7190 129° Southeast 491 565 35,000  Level FlightAware
02:12AM -28.1420 134.8030 129° Southeast 491 565 35,000  Level FlightAware
02:13AM -28.1880 134.8670 129° Southeast 491 565 35,000  Level FlightAware
02:13AM -27.5847 135.5307 219° Southwest 37,000  Climbing Aus ATC (Calculated)
02:13AM -28.2310 134.9290 128° Southeast 491 565 35,000 -2,160 Descending FlightAware
02:14AM -28.2900 135.0100 128° Southeast 491 565 35,000  Level FlightAware
02:15AM -28.3350 135.0730 129° Southeast 491 565 35,000 -120 Level FlightAware
02:18AM -28.5943 135.3097 141° Southeast  Level Estimated
02:18AM -27.9250 136.1850 144° Southeast 37,000  Level Aus ATC (Calculated)
02:19AM -28.6926 135.3998 141° Southeast  Level Estimated
02:20AM -28.0509 136.2829 146° Southeast  Level Estimated
02:21AM -28.1572 136.3659 145° Southeast  Level Estimated
02:22AM -28.2635 136.4490 145° Southeast  Level Estimated
02:23AM -28.3697 136.5323 145° Southeast  Level Estimated
02:23AM -28.2949 136.8122 148° Southeast 37,000  Level Aus ATC (Calculated)
02:24AM -28.3696 136.8636 148° Southeast 37,000 -240 Level Aus ATC (Calculated)
02:26AM -28.5763 137.0202 146° Southeast  Level Estimated
02:27AM -28.6823 137.1007 146° Southeast  Level Estimated
02:27AM -28.6681 137.0701 147° Southeast 37,000  Level Aus ATC (Calculated)
02:27AM -28.7427 137.1220 147° Southeast 37,000 -240 Level Aus ATC (Calculated)
02:29AM -28.8961 137.2394 146° Southeast  Level Estimated
02:29AM -28.8918 137.2258 147° Southeast 37,000  Level Aus ATC (Calculated)
02:31AM -29.0978 137.3844 146° Southeast  Level Estimated
02:32AM -29.2034 137.4660 146° Southeast  Level Estimated
02:33AM -29.3089 137.5477 146° Southeast  Level Estimated
02:34AM -29.4144 137.6296 146° Southeast  Level Estimated
02:34AM -29.4130 137.5916 147° Southeast 37,000  Level Aus ATC (Calculated)
02:36AM -29.6200 137.7537 146° Southeast  Level Estimated
02:37AM -29.7251 137.8364 146° Southeast  Level Estimated
02:38AM -29.8302 137.9193 146° Southeast  Level Estimated
02:39AM -29.9353 138.0023 146° Southeast  Level Estimated
02:39AM -29.9332 137.9611 145° Southeast 37,000  Level Aus ATC (Calculated)
02:41AM -30.1469 138.1316 145° Southeast  Level Estimated
02:41AM -30.1557 138.1207 145° Southeast 37,000  Level Aus ATC (Calculated)
02:43AM -30.3708 138.2937 145° Southeast  Level Estimated
02:43AM -30.3781 138.2809 143° Southeast 37,000  Level Aus ATC (Calculated)
02:44AM -30.5263 138.3882 141° Southeast 37,000 -1,380 Level Aus ATC (Calculated)
02:45AM -30.5748 138.4404 145° Southeast  Level Estimated
02:45AM -30.6699 138.5133 140° Southeast 37,000  Level Aus ATC (Calculated)
02:46AM -30.9198 138.7552 145° Southeast 405 466 32,500 -3,240 Descending Aus ATC (RADAR)
02:47AM -30.9624 138.7980 139° Southeast 401 461 32,000 -840 Descending Aus ATC (RADAR)
02:47AM -31.0346 138.8811 135° Southeast 422 486 31,400 -360 Descending Aus ATC (RADAR)
02:48AM -31.0991 138.9487 138° Southeast 419 482 31,500 60 Climbing Aus ATC (RADAR)
02:49AM -31.1496 139.0029 137° Southeast 422 486 31,500  Level Aus ATC (RADAR)
02:49AM -31.2134 139.0692 138° Southeast 416 479 31,500  Level Aus ATC (RADAR)
02:50AM -31.2990 139.1577 139° Southeast 414 476 31,500  Level Aus ATC (RADAR)
02:51AM -31.3634 139.2251 138° Southeast 415 478 31,500  Level Aus ATC (RADAR)
02:52AM -31.4490 139.3143 138° Southeast 415 478 31,500  Level Aus ATC (RADAR)
02:53AM -31.5135 139.3822 138° Southeast 417 480 31,500  Level Aus ATC (RADAR)
02:54AM -31.5635 139.4351 138° Southeast 416 479 31,500  Level Aus ATC (RADAR)
02:55AM -31.6497 139.5266 138° Southeast 420 483 31,500  Level Aus ATC (RADAR)
02:55AM -31.7216 139.6020 138° Southeast 419 482 31,500  Level Aus ATC (RADAR)
02:56AM -31.8156 139.7035 137° Southeast 423 487 31,500  Level Aus ATC (RADAR)
02:57AM -31.8874 139.7785 138° Southeast 420 483 31,500  Level Aus ATC (RADAR)
02:58AM -31.9452 139.8401 138° Southeast 424 488 31,500  Level Aus ATC (RADAR)
02:59AM -31.9965 139.8963 137° Southeast 429 494 31,500 -120 Level Aus ATC (RADAR)
02:59AM -32.0538 139.9569 138° Southeast 422 486 31,400 -120 Descending Aus ATC (RADAR)
03:00AM -32.0969 140.0033 138° Southeast 422 486 31,400  Level Aus ATC (RADAR)
03:00AM -32.1474 140.0570 138° Southeast 423 487 31,400  Level Aus ATC (RADAR)
03:01AM -32.2125 140.1274 138° Southeast 423 487 31,400  Level Aus ATC (RADAR)
03:02AM -32.2771 140.1972 138° Southeast 422 486 31,400  Level Aus ATC (RADAR)
03:02AM -32.3279 140.2525 137° Southeast 424 488 31,400  Level Aus ATC (RADAR)
03:03AM -32.3921 140.3212 138° Southeast 420 483 31,400  Level Aus ATC (RADAR)
03:04AM -32.4788 140.4152 138° Southeast 423 487 31,400  Level Aus ATC (RADAR)
03:05AM -32.5435 140.4862 137° Southeast 428 493 31,400  Level Aus ATC (RADAR)
03:05AM -32.5940 140.5410 138° Southeast 425 489 31,400 -360 Level Aus ATC (RADAR)
03:06AM -32.6570 140.6090 138° Southeast 425 489 31,000  Descending FlightAware
03:06AM -32.6582 140.6110 137° Southeast 421 484 31,400 660 Climbing Aus ATC (RADAR)
03:07AM -32.7081 140.6650 138° Southeast 418 481 31,400 -660 Level Aus ATC (RADAR)
03:07AM -32.7140 140.6710 138° Southeast 425 489 31,000  Descending FlightAware
03:07AM -32.7666 140.7298 138° Southeast 426 490 31,400  Climbing Aus ATC (RADAR)
03:07AM -32.7690 140.7320 138° Southeast 426 490 31,000  Descending FlightAware
03:08AM -32.8317 140.8005 138° Southeast 424 488 31,400  Climbing Aus ATC (RADAR)
03:08AM -32.8320 140.8010 138° Southeast 427 491 31,000 -540 Descending FlightAware
03:09AM -32.8970 140.8720 137° Southeast 427 491 31,000  Level FlightAware
03:10AM -32.9490 140.9290 137° Southeast 427 491 31,000  Level FlightAware
03:10AM -33.0120 140.9990 137° Southeast 426 490 31,000 180 Level FlightAware
03:11AM -33.0987 141.0955 137° Southeast 423 487 31,400 240 Climbing Aus ATC (RADAR)
03:12AM -33.1493 141.1514 137° Southeast 424 488 31,400  Level Aus ATC (RADAR)
03:12AM -33.1999 141.2077 137° Southeast 427 491 31,400  Level Aus ATC (RADAR)
03:13AM -33.2496 141.2630 137° Southeast 422 486 31,400  Level Aus ATC (RADAR)
03:14AM -33.3007 141.3200 137° Southeast 426 490 31,400 -420 Level Aus ATC (RADAR)
03:14AM -33.3390 141.3610 137° Southeast 427 491 31,000 -360 Descending FlightAware
03:15AM -33.3910 141.4200 137° Southeast 427 491 31,000 540 Level FlightAware
03:15AM -33.4010 141.4323 137° Southeast 424 488 31,400 540 Climbing Aus ATC (RADAR)
03:15AM -33.4592 141.4976 137° Southeast 429 494 31,400  Level Aus ATC (RADAR)
03:16AM -33.5090 141.5537 137° Southeast 425 489 31,400 -540 Level Aus ATC (RADAR)
03:16AM -33.5240 141.5690 137° Southeast 428 493 31,000 -480 Descending FlightAware
03:17AM -33.5820 141.6350 137° Southeast 429 494 31,000 300 Level FlightAware
03:17AM -33.6328 141.6920 137° Southeast 430 495 31,400  Climbing Aus ATC (RADAR)
03:18AM -33.6420 141.7020 137° Southeast 428 493 31,000  Descending FlightAware
03:18AM -33.6894 141.7564 137° Southeast 424 488 31,400  Climbing Aus ATC (RADAR)
03:18AM -33.7060 141.7740 137° Southeast 427 491 31,000 -480 Descending FlightAware
03:19AM -33.7720 141.8490 137° Southeast 429 494 31,000  Level FlightAware
03:20AM -33.8210 141.9050 136° Southeast 429 494 31,000 300 Level FlightAware
03:20AM -33.8704 141.9613 136° Southeast 431 496 31,400  Climbing Aus ATC (RADAR)
03:20AM -33.8940 141.9870 136° Southeast 429 494 31,000  Descending FlightAware
03:21AM -33.9569 142.0594 136° Southeast 428 493 31,400  Climbing Aus ATC (RADAR)
03:22AM -33.9950 142.1020 136° Southeast 431 496 31,000  Descending FlightAware
03:22AM -34.0507 142.1667 136° Southeast 429 494 31,400  Climbing Aus ATC (RADAR)
03:22AM -34.0600 142.1770 136° Southeast 432 497 31,000 -480 Descending FlightAware
03:23AM -34.1260 142.2520 137° Southeast 432 497 31,000  Level FlightAware
03:24AM -34.1830 142.3170 137° Southeast 432 497 31,000  Level FlightAware
03:24AM -34.2400 142.3830 136° Southeast 433 498 31,000  Level FlightAware
03:25AM -34.2990 142.4510 136° Southeast 434 499 31,000  Level FlightAware
03:26AM -34.3400 142.4980 137° Southeast 434 499 31,000  Level FlightAware
03:26AM -34.3990 142.5660 136° Southeast 435 501 31,000 300 Level FlightAware
03:27AM -34.4491 142.6249 136° Southeast 432 497 31,400  Climbing Aus ATC (RADAR)
03:27AM -34.4710 142.6490 136° Southeast 429 494 31,000 -480 Descending FlightAware
03:28AM -34.5280 142.7170 136° Southeast 430 495 31,000 300 Level FlightAware
03:28AM -34.5866 142.7854 136° Southeast 433 498 31,400  Climbing Aus ATC (RADAR)
03:28AM -34.5920 142.7900 136° Southeast 431 496 31,000  Descending FlightAware
03:29AM -34.6377 142.8447 136° Southeast 433 498 31,400  Climbing Aus ATC (RADAR)
03:29AM -34.6520 142.8610 136° Southeast 430 495 31,000  Descending FlightAware
03:30AM -34.7394 142.9635 136° Southeast 434 499 31,400 240 Climbing Aus ATC (RADAR)
03:31AM -34.7900 143.0232 136° Southeast 435 501 31,400  Level Aus ATC (RADAR)
03:31AM -34.8556 143.0994 136° Southeast 434 499 31,400  Level Aus ATC (RADAR)
03:32AM -34.9131 143.1674 136° Southeast 433 498 31,400  Level Aus ATC (RADAR)
03:33AM -34.9640 143.2272 136° Southeast 434 499 31,400  Level Aus ATC (RADAR)
03:33AM -35.0222 143.2740 147° Southeast 431 496 31,400 -120 Level Aus ATC (RADAR)
03:34AM -35.0817 143.3179 149° Southeast 428 493 31,300 -120 Descending Aus ATC (RADAR)
03:35AM -35.1576 143.3761 148° Southeast 429 494 31,300 -240 Level Aus ATC (RADAR)
03:35AM -35.2340 143.4330 148° Southeast 432 497 31,000 -240 Descending FlightAware
03:36AM -35.2990 143.4820 148° Southeast 433 498 31,000  Level FlightAware
03:37AM -35.3660 143.5330 148° Southeast 434 499 31,000  Level FlightAware
03:37AM -35.4510 143.5970 148° Southeast 437 503 31,000  Level FlightAware
03:38AM -35.5210 143.6500 148° Southeast 437 503 31,000 180 Level FlightAware
03:39AM -35.5840 143.6998 148° Southeast 437 503 31,300  Climbing Aus ATC (RADAR)
03:39AM -35.6150 143.7230 148° Southeast 438 504 31,000 -300 Descending FlightAware
03:40AM -35.7100 143.7950 148° Southeast 439 505 31,000  Level FlightAware
03:41AM -35.7710 143.8420 148° Southeast 440 506 31,000 420 Level FlightAware
03:41AM -35.7823 143.8490 148° Southeast 435 501 31,300 420 Climbing Aus ATC (RADAR)
03:41AM -35.8427 143.8957 148° Southeast 436 502 31,300 -420 Level Aus ATC (RADAR)
03:41AM -35.8650 143.9150 148° Southeast 440 506 31,000  Descending FlightAware
03:42AM -35.9202 143.9565 148° Southeast 439 505 31,300  Climbing Aus ATC (RADAR)
03:42AM -35.9690 143.9950 148° Southeast 441 507 31,000  Descending FlightAware
03:43AM -36.0241 144.0357 148° Southeast 437 503 31,300  Climbing Aus ATC (RADAR)
03:43AM -36.0480 144.0560 148° Southeast 440 506 31,000 -480 Descending FlightAware
03:44AM -36.1140 144.1070 148° Southeast 403 464 30,900 -780 Descending FlightAware
03:45AM -36.1845 144.1611 148° Southeast 385 443 29,900 -1,620 Descending Aus ATC (RADAR)
03:45AM -36.2369 144.2020 148° Southeast 378 435 28,800 -2,160 Descending Aus ATC (RADAR)
03:46AM -36.3000 144.2530 148° Southeast 365 420 27,100 -1,860 Descending FlightAware
03:47AM -36.3598 144.2982 148° Southeast 359 413 26,200 -1,800 Descending Aus ATC (RADAR)
03:47AM -36.3580 144.2980 148° Southeast 359 413 25,900 -2,100 Descending FlightAware
03:47AM -36.4190 144.3460 148° Southeast 343 395 24,700 -1,380 Descending FlightAware
03:48AM -36.4698 144.3845 148° Southeast 347 399 24,100 -1,620 Descending Aus ATC (RADAR)
03:48AM -36.4760 144.3900 148° Southeast 348 400 23,600 -1,860 Descending FlightAware
03:49AM -36.5310 144.4330 148° Southeast 346 398 22,700 -1,440 Descending FlightAware
03:49AM -36.5920 144.4810 148° Southeast 347 399 21,600 -1,560 Descending FlightAware
03:50AM -36.6460 144.5240 147° Southeast 331 381 20,500 -1,500 Descending FlightAware
03:51AM -36.7040 144.5700 147° Southeast 327 376 19,400 -1,140 Descending FlightAware
03:51AM -36.7121 144.5760 147° Southeast 329 379 19,600 -1,140 Climbing Aus ATC (RADAR)
03:52AM -36.7572 144.6122 147° Southeast 326 375 18,700 -2,040 Descending Aus ATC (RADAR)
03:52AM -36.7560 144.6120 147° Southeast 329 379 18,400 -1,800 Descending FlightAware
03:52AM -36.8080 144.6490 150° Southeast 319 367 17,500 -1,320 Descending FlightAware
03:53AM -36.8521 144.6621 150° Southeast 317 365 16,900 -1,740 Descending Aus ATC (RADAR)
03:53AM -36.8740 144.6660 150° Southeast 311 358 16,200 -2,040 Descending FlightAware
03:54AM -36.9290 144.6790 169° South 308 354 15,000 -1,620 Descending FlightAware
03:54AM -36.9850 144.6910 170° South 293 337 14,100 -1,080 Descending FlightAware
03:55AM -37.0543 144.7060 170° South 301 346 13,400 -1,320 Descending Aus ATC (RADAR)
03:55AM -37.0690 144.7090 170° South 294 338 12,800 -1,740 Descending FlightAware
03:56AM -37.1300 144.7230 170° South 292 336 11,800 -1,380 Descending FlightAware
03:57AM -37.1900 144.7360 170° South 290 334 10,800 -1,320 Descending FlightAware
03:58AM -37.2430 144.7470 171° South 280 322 10,000 -1,200 Descending FlightAware
03:58AM -37.2730 144.7540 169° South 275 316 9,500 -1,440 Descending FlightAware
03:59AM -37.3260 144.7650 171° South 281 323 8,500 -1,320 Descending FlightAware
03:59AM -37.3640 144.7740 169° South 273 314 8,000 -660 Descending FlightAware
04:00AM -37.4307 144.7902 169° South 265 305 7,600 -660 Descending Aus ATC (RADAR)
04:01AM -37.4735 144.8006 169° South 267 307 7,100 -840 Descending Aus ATC (RADAR)
04:01AM -37.5104 144.8085 170° South 268 308 6,700 -960 Descending Aus ATC (RADAR)
04:02AM -37.5514 144.8268 160° South 271 312 6,100 -1,080 Descending Aus ATC (RADAR)
04:02AM -37.5653 144.8809 108° East 281 323 5,500 -1,080 Descending Aus ATC (RADAR)
04:03AM -37.5682 144.9459 93° East 274 315 4,800 -1,320 Descending Aus ATC (RADAR)
04:03AM -37.5690 144.9600 93° East 274 315 4,400 -600 Descending FlightAware
04:04AM -37.5760 145.0040 101° East 252 290 4,400 -240 Level FlightAware
04:04AM -37.5950 145.0280 101° East 231 266 4,200 180 Descending FlightAware
04:04AM -37.6004 145.0332 101° East 234 269 4,500 -1,500 Climbing Aus ATC (RADAR)
04:04AM -37.6090 145.0360 156° South 221 254 3,900 -2,100 Descending FlightAware
04:04AM -37.6190 145.0390 167° South 213 245 3,800 -960 Descending FlightAware
04:05AM -37.6330 145.0380 183° South 204 235 3,500 -1,200 Descending FlightAware
04:05AM -37.6540 145.0280 201° Southwest 189 217 3,000 -1,080 Descending FlightAware
04:05AM -37.6630 145.0170 224° Southwest 183 211 2,800 -1,020 Descending FlightAware
04:06AM -37.6680 145.0030 246° West 177 204 2,500 -720 Descending FlightAware
04:06AM -37.6678 144.9492 246° West 157 181 2,000 -900 Descending Aus ATC (RADAR)
04:07AM -37.6670 144.9380 246° West 146 168 1,500 -780 Descending FlightAware
04:08AM -37.6642 144.8834 246° West 140 161 1,000 -780 Descending Aus ATC (RADAR)
04:08AM -37.6640 144.8720 246° West 142 163 500 -1,200 Descending FlightAware
04:09AM -37.6620 144.8480 276° West 144 166 100 -840 Descending FlightAware